Time;durP1;ratioP1;P1;durP2;ratioP2;P2;SDS_P1;SDS_P2;PMS_P1;PMS_P2;Temp;Humidity;BMP_temperature;BMP_pressure;BME280_temperature;BME280_humidity;BME280_pressure;Samples;Min_cycle;Max_cycle;Signal;HPM_P1;HPM_P2
2022/04/21 00:02:22;;;;;;;5.63;4.00;;;;;;;;;;5009529;28;20258;-78
2022/04/21 00:04:48;;;;;;;5.03;4.50;;;;;;;;;;5010309;28;20532;-78
2022/04/21 00:07:14;;;;;;;4.70;3.67;;;;;;;;;;5008899;28;20735;-78
2022/04/21 00:09:40;;;;;;;4.30;3.90;;;;;;;;;;5011304;28;20188;-78
2022/04/21 00:12:07;;;;;;;4.90;4.40;;;;;;;;;;5004145;28;20199;-78
2022/04/21 00:14:33;;;;;;;4.60;3.93;;;;;;;;;;5013854;28;20210;-78
2022/04/21 00:16:59;;;;;;;5.00;4.50;;;;;;;;;;5011600;28;20211;-78
2022/04/21 00:19:25;;;;;;;5.73;4.70;;;;;;;;;;5008197;28;20213;-78
2022/04/21 00:24:37;;;;;;;5.73;4.80;;;;;;;;;;5011663;28;20207;-78
2022/04/21 00:27:03;;;;;;;4.80;4.40;;;;;;;;;;5013003;28;20608;-78
2022/04/21 00:29:29;;;;;;;4.20;3.80;;;;;;;;;;5012045;28;20568;-78
2022/04/21 00:31:55;;;;;;;4.40;3.97;;;;;;;;;;5008562;28;20267;-78
2022/04/21 00:34:22;;;;;;;5.07;4.00;;;;;;;;;;5012099;28;20270;-78
2022/04/21 00:36:48;;;;;;;4.53;4.13;;;;;;;;;;5005140;28;20701;-78
2022/04/21 00:39:14;;;;;;;4.90;4.10;;;;;;;;;;5006579;28;20305;-78
2022/04/21 00:41:43;;;;;;;4.67;4.10;;;;;;;;;;5013242;28;20187;-78
2022/04/21 00:44:10;;;;;;;4.93;4.30;;;;;;;;;;5010289;28;20298;-78
2022/04/21 00:46:38;;;;;;;5.57;4.53;;;;;;;;;;5012236;28;20733;-78
2022/04/21 00:49:04;;;;;;;4.60;4.10;;;;;;;;;;5011578;28;20310;-78
2022/04/21 00:51:31;;;;;;;4.43;4.03;;;;;;;;;;5013083;28;20198;-78
2022/04/21 00:53:58;;;;;;;5.10;4.40;;;;;;;;;;5012509;28;20187;-78
2022/04/21 00:56:24;;;;;;;4.60;4.07;;;;;;;;;;5012748;28;20198;-78
2022/04/21 00:58:51;;;;;;;4.23;3.83;;;;;;;;;;4995425;28;20546;-78
2022/04/21 01:04:03;;;;;;;6.30;4.33;;;;;;;;;;5013365;28;20183;-78
2022/04/21 01:06:29;;;;;;;5.50;4.77;;;;;;;;;;5012834;28;20206;-78
2022/04/21 01:08:55;;;;;;;4.87;4.37;;;;;;;;;;5012887;28;20188;-78
2022/04/21 01:11:21;;;;;;;5.87;4.37;;;;;;;;;;5013110;28;20195;-78
2022/04/21 01:13:47;;;;;;;5.87;4.63;;;;;;;;;;5011637;28;20199;-78
2022/04/21 01:16:14;;;;;;;5.77;4.30;;;;;;;;;;5012967;28;20550;-78
2022/04/21 01:18:43;;;;;;;5.23;4.73;;;;;;;;;;5009702;28;20261;-78
2022/04/21 01:21:09;;;;;;;6.50;4.70;;;;;;;;;;5006029;28;20187;-78
2022/04/21 01:23:35;;;;;;;5.83;5.17;;;;;;;;;;5004163;28;20184;-78
2022/04/21 01:26:02;;;;;;;4.73;4.30;;;;;;;;;;5027673;28;20238;-78
2022/04/21 01:28:30;;;;;;;5.87;4.53;;;;;;;;;;5012349;28;20207;-78
2022/04/21 01:30:57;;;;;;;6.50;5.30;;;;;;;;;;5012491;28;20194;-78
2022/04/21 01:33:24;;;;;;;5.73;5.00;;;;;;;;;;5012199;28;20183;-78
2022/04/21 01:35:51;;;;;;;4.87;4.20;;;;;;;;;;5011648;28;20229;-78
2022/04/21 01:41:14;;;;;;;5.20;4.57;;;;;;;;;;5005456;28;20263;-78
2022/04/21 01:43:43;;;;;;;4.67;4.23;;;;;;;;;;5011047;28;20209;-78
2022/04/21 01:46:09;;;;;;;4.77;4.23;;;;;;;;;;5011231;28;20558;-78
2022/04/21 01:48:36;;;;;;;6.17;4.83;;;;;;;;;;5011360;28;20198;-78
2022/04/21 01:51:02;;;;;;;5.50;5.00;;;;;;;;;;5011641;28;20241;-78
2022/04/21 01:53:28;;;;;;;7.77;5.10;;;;;;;;;;5007166;28;20652;-78
2022/04/21 01:55:55;;;;;;;5.90;5.30;;;;;;;;;;5012290;28;20676;-78
2022/04/21 01:58:21;;;;;;;5.70;4.70;;;;;;;;;;5011823;28;20241;-78
2022/04/21 02:00:48;;;;;;;5.10;4.60;;;;;;;;;;5012140;28;20710;-78
2022/04/21 02:03:14;;;;;;;6.10;4.50;;;;;;;;;;5011991;28;20711;-78
2022/04/21 02:05:40;;;;;;;5.50;5.00;;;;;;;;;;5010743;28;20172;-79
2022/04/21 02:08:07;;;;;;;6.20;5.20;;;;;;;;;;5010801;28;20679;-78
2022/04/21 02:10:33;;;;;;;5.23;4.70;;;;;;;;;;5009672;28;20191;-78
2022/04/21 02:13:00;;;;;;;5.87;5.27;;;;;;;;;;5011828;28;20190;-78
2022/04/21 02:15:26;;;;;;;7.30;5.50;;;;;;;;;;5009405;28;20207;-78
2022/04/21 02:17:52;;;;;;;5.93;4.77;;;;;;;;;;5010527;28;20695;-78
2022/04/21 02:20:19;;;;;;;7.07;5.70;;;;;;;;;;5007000;28;20183;-78
2022/04/21 02:22:45;;;;;;;5.47;4.80;;;;;;;;;;5022950;28;20187;-78
2022/04/21 02:25:12;;;;;;;6.43;5.53;;;;;;;;;;5011310;28;20670;-78
2022/04/21 02:27:39;;;;;;;5.90;4.90;;;;;;;;;;5005641;28;20737;-78
2022/04/21 02:30:06;;;;;;;6.00;5.27;;;;;;;;;;5009909;28;20183;-78
2022/04/21 02:32:32;;;;;;;6.53;5.37;;;;;;;;;;5009244;28;20187;-78
2022/04/21 02:34:58;;;;;;;6.67;5.53;;;;;;;;;;5008539;28;20175;-78
2022/04/21 02:37:25;;;;;;;5.37;4.47;;;;;;;;;;5010648;28;20573;-78
2022/04/21 02:39:51;;;;;;;5.17;4.20;;;;;;;;;;5026615;28;20183;-78
2022/04/21 02:42:20;;;;;;;5.23;4.77;;;;;;;;;;5011253;28;20176;-78
2022/04/21 02:44:46;;;;;;;6.00;5.40;;;;;;;;;;5006177;28;20214;-78
2022/04/21 02:47:14;;;;;;;6.37;5.43;;;;;;;;;;5011602;28;20199;-78
2022/04/21 02:49:45;;;;;;;5.40;4.90;;;;;;;;;;5010774;28;20702;-78
2022/04/21 02:52:12;;;;;;;5.20;4.40;;;;;;;;;;5011439;28;20643;-78
2022/04/21 02:57:24;;;;;;;5.80;5.30;;;;;;;;;;5002731;28;20207;-79
2022/04/21 03:00:00;;;;;;;5.07;4.23;;;;;;;;;;5010790;28;20269;-78
2022/04/21 03:02:27;;;;;;;6.00;4.90;;;;;;;;;;5008079;28;20562;-78
2022/04/21 03:04:54;;;;;;;7.83;5.93;;;;;;;;;;5011247;28;20185;-78
2022/04/21 03:07:21;;;;;;;6.77;6.13;;;;;;;;;;5009408;28;20531;-78
2022/04/21 03:09:47;;;;;;;6.00;5.40;;;;;;;;;;5008236;28;20266;-78
2022/04/21 03:12:13;;;;;;;7.40;6.00;;;;;;;;;;5011198;28;20203;-78
2022/04/21 03:14:40;;;;;;;7.93;6.17;;;;;;;;;;5010468;28;20233;-78
2022/04/21 03:17:07;;;;;;;5.93;4.70;;;;;;;;;;5007580;28;20238;-78
2022/04/21 03:19:34;;;;;;;6.40;5.80;;;;;;;;;;5009227;28;20261;-78
2022/04/21 03:24:46;;;;;;;8.37;5.77;;;;;;;;;;5009155;28;20183;-78
2022/04/21 03:27:12;;;;;;;6.17;5.10;;;;;;;;;;5021123;28;20284;-78
2022/04/21 03:29:38;;;;;;;5.60;5.10;;;;;;;;;;5008562;28;20240;-78
2022/04/21 03:32:13;;;;;;;5.70;5.10;;;;;;;;;;5006143;28;20187;-78
2022/04/21 03:34:43;;;;;;;6.83;6.13;;;;;;;;;;5011259;28;20182;-78
2022/04/21 03:37:13;;;;;;;5.87;5.37;;;;;;;;;;4987002;28;20244;-78
2022/04/21 03:39:40;;;;;;;6.33;5.20;;;;;;;;;;5009032;28;20199;-78
2022/04/21 03:42:07;;;;;;;6.10;5.50;;;;;;;;;;5009725;28;20575;-78
2022/04/21 03:44:34;;;;;;;5.70;5.20;;;;;;;;;;5011518;28;20190;-78
2022/04/21 03:47:00;;;;;;;6.07;5.47;;;;;;;;;;5010188;28;20192;-78
2022/04/21 03:49:49;;;;;;;7.57;6.40;;;;;;;;;;4939780;29;20291;-78
2022/04/21 03:52:17;;;;;;;7.10;6.40;;;;;;;;;;4954209;29;20189;-78
2022/04/21 03:54:43;;;;;;;6.87;6.17;;;;;;;;;;4987234;28;20242;-78
2022/04/21 03:57:10;;;;;;;6.57;5.87;;;;;;;;;;5014432;28;20338;-78
2022/04/21 04:00:03;;;;;;;6.10;5.50;;;;;;;;;;5007099;28;20199;-78
2022/04/21 04:02:37;;;;;;;8.70;6.67;;;;;;;;;;5006226;28;20198;-78
2022/04/21 04:05:03;;;;;;;7.63;6.83;;;;;;;;;;5006407;28;20708;-78
2022/04/21 04:12:59;;;;;;;6.93;6.33;;;;;;;;;;5006592;28;20267;-78
2022/04/21 04:15:26;;;;;;;8.20;6.80;;;;;;;;;;5005059;28;20180;-78
2022/04/21 04:17:52;;;;;;;8.30;6.57;;;;;;;;;;5010364;28;20215;-78
2022/04/21 04:20:18;;;;;;;8.53;6.87;;;;;;;;;;5014143;28;20171;-78
2022/04/21 04:22:44;;;;;;;9.13;7.70;;;;;;;;;;5011478;28;20198;-78
2022/04/21 04:25:15;;;;;;;7.03;6.37;;;;;;;;;;5012937;28;20179;-78
2022/04/21 04:27:41;;;;;;;8.93;6.93;;;;;;;;;;5010571;28;20208;-78
2022/04/21 04:30:08;;;;;;;8.77;7.07;;;;;;;;;;5013378;28;20182;-78
2022/04/21 04:32:35;;;;;;;8.23;7.43;;;;;;;;;;5014045;28;20671;-78
2022/04/21 04:35:01;;;;;;;8.27;7.47;;;;;;;;;;5010150;28;20736;-78
2022/04/21 04:37:27;;;;;;;9.03;7.97;;;;;;;;;;5013930;28;20609;-78
2022/04/21 04:39:55;;;;;;;8.77;7.70;;;;;;;;;;5008305;28;20235;-78
2022/04/21 04:42:22;;;;;;;9.03;7.60;;;;;;;;;;5012672;28;20623;-78
2022/04/21 04:44:49;;;;;;;8.77;7.50;;;;;;;;;;5012369;28;20241;-78
2022/04/21 04:47:15;;;;;;;8.03;7.23;;;;;;;;;;5013640;28;20606;-79
2022/04/21 04:49:42;;;;;;;7.90;7.10;;;;;;;;;;5013126;28;20199;-78
2022/04/21 04:52:08;;;;;;;8.03;7.27;;;;;;;;;;5012856;28;20587;-78
2022/04/21 04:54:34;;;;;;;8.53;7.70;;;;;;;;;;5012369;28;20187;-78
2022/04/21 04:57:01;;;;;;;10.00;7.60;;;;;;;;;;5013602;28;20203;-79
2022/04/21 04:59:29;;;;;;;7.90;7.10;;;;;;;;;;5008466;28;20220;-78
2022/04/21 05:01:55;;;;;;;11.90;8.03;;;;;;;;;;5004791;28;20615;-78
2022/04/21 05:04:21;;;;;;;17.87;11.30;;;;;;;;;;5013136;28;20263;-78
2022/04/21 05:06:49;;;;;;;12.60;8.97;;;;;;;;;;4992920;28;20580;-79
2022/04/21 05:09:19;;;;;;;12.20;8.23;;;;;;;;;;5011886;28;21540;-78
2022/04/21 05:11:47;;;;;;;10.10;7.30;;;;;;;;;;5007195;28;20595;-78
2022/04/21 05:14:14;;;;;;;10.57;7.40;;;;;;;;;;5012027;28;20222;-79
2022/04/21 05:16:40;;;;;;;8.90;7.10;;;;;;;;;;5012386;28;20341;-78
2022/04/21 05:19:10;;;;;;;8.70;7.77;;;;;;;;;;5011278;28;20221;-82
2022/04/21 05:21:37;;;;;;;9.10;7.00;;;;;;;;;;5016945;28;20269;-78
2022/04/21 05:24:04;;;;;;;7.67;6.83;;;;;;;;;;5013411;28;20187;-78
2022/04/21 05:26:50;;;;;;;8.40;7.50;;;;;;;;;;4983078;28;20223;-79
2022/04/21 05:32:03;;;;;;;7.97;7.17;;;;;;;;;;5012777;28;20195;-79
2022/04/21 05:34:30;;;;;;;8.10;7.20;;;;;;;;;;5013299;28;20736;-79
2022/04/21 05:36:56;;;;;;;10.67;8.10;;;;;;;;;;5011462;28;20203;-79
2022/04/21 05:39:23;;;;;;;11.60;8.03;;;;;;;;;;5011418;28;20226;-79
2022/04/21 05:41:51;;;;;;;9.20;7.23;;;;;;;;;;5014123;28;20187;-79
2022/04/21 05:44:18;;;;;;;8.77;7.87;;;;;;;;;;5017906;28;20262;-79
2022/04/21 05:46:45;;;;;;;10.03;8.13;;;;;;;;;;5017314;28;20629;-79
2022/04/21 05:49:11;;;;;;;8.30;7.50;;;;;;;;;;5005617;28;22161;-79
2022/04/21 05:51:38;;;;;;;9.80;8.20;;;;;;;;;;5010627;28;20195;-79
2022/04/21 05:54:05;;;;;;;9.57;8.60;;;;;;;;;;5012155;28;20183;-79
2022/04/21 05:56:32;;;;;;;10.77;8.23;;;;;;;;;;4994421;28;20213;-79
2022/04/21 05:58:58;;;;;;;9.20;8.20;;;;;;;;;;5005175;28;20626;-79
2022/04/21 06:01:25;;;;;;;10.50;8.50;;;;;;;;;;5011269;28;20190;-79
2022/04/21 06:03:52;;;;;;;11.13;7.90;;;;;;;;;;5012348;28;20171;-79
2022/04/21 06:06:19;;;;;;;9.40;8.50;;;;;;;;;;5011363;28;20309;-79
2022/04/21 06:08:45;;;;;;;9.50;8.53;;;;;;;;;;5009208;28;20205;-79
2022/04/21 06:11:13;;;;;;;9.97;8.50;;;;;;;;;;5000462;28;20191;-80
2022/04/21 06:13:43;;;;;;;9.70;8.70;;;;;;;;;;5012991;28;20266;-79
2022/04/21 06:16:09;;;;;;;10.77;8.70;;;;;;;;;;5013559;28;20179;-79
2022/04/21 06:18:36;;;;;;;9.87;8.83;;;;;;;;;;5012942;28;20191;-79
2022/04/21 06:21:03;;;;;;;10.97;8.77;;;;;;;;;;5012056;28;20230;-79
2022/04/21 06:23:33;;;;;;;9.57;8.10;;;;;;;;;;5010057;28;20185;-79
2022/04/21 06:26:00;;;;;;;13.23;8.63;;;;;;;;;;5010096;28;20555;-79
2022/04/21 06:28:47;;;;;;;9.27;8.37;;;;;;;;;;4971971;28;20195;-79
2022/04/21 06:31:15;;;;;;;10.60;8.40;;;;;;;;;;5010924;28;20179;-80
2022/04/21 06:33:41;;;;;;;10.03;8.00;;;;;;;;;;5012312;28;20524;-79
2022/04/21 06:36:09;;;;;;;9.80;8.80;;;;;;;;;;5007486;28;20291;-79
2022/04/21 06:38:35;;;;;;;10.57;8.20;;;;;;;;;;5011890;28;20302;-79
2022/04/21 06:41:02;;;;;;;8.53;7.67;;;;;;;;;;5009367;28;20195;-79
2022/04/21 06:48:58;;;;;;;8.50;7.60;;;;;;;;;;5021936;28;20245;-80
2022/04/21 06:51:27;;;;;;;8.80;7.10;;;;;;;;;;4994411;28;20194;-80
2022/04/21 06:53:54;;;;;;;7.90;7.10;;;;;;;;;;5011599;28;20168;-80
2022/04/21 06:56:21;;;;;;;9.30;7.67;;;;;;;;;;5010730;28;20187;-80
2022/04/21 06:58:56;;;;;;;11.37;9.40;;;;;;;;;;5005559;28;20195;-80
2022/04/21 07:01:24;;;;;;;11.83;10.57;;;;;;;;;;5011267;28;20281;-80
2022/04/21 07:03:51;;;;;;;8.83;7.67;;;;;;;;;;4977720;28;20551;-79
2022/04/21 07:06:17;;;;;;;8.47;7.20;;;;;;;;;;5010816;28;20183;-79
2022/04/21 07:08:44;;;;;;;7.83;7.03;;;;;;;;;;5029136;28;20187;-81
2022/04/21 07:11:11;;;;;;;9.10;7.33;;;;;;;;;;5010585;28;20214;-79
2022/04/21 07:13:37;;;;;;;7.83;6.90;;;;;;;;;;5011102;28;20706;-79
2022/04/21 07:16:03;;;;;;;8.87;7.50;;;;;;;;;;5009356;28;20249;-79
2022/04/21 07:18:30;;;;;;;8.60;6.80;;;;;;;;;;5026039;28;20215;-80
2022/04/21 07:20:57;;;;;;;9.53;7.60;;;;;;;;;;4997429;28;20187;-79
2022/04/21 07:23:24;;;;;;;8.20;7.40;;;;;;;;;;5011793;28;20720;-79
2022/04/21 07:25:50;;;;;;;12.07;7.33;;;;;;;;;;5010630;28;20183;-79
2022/04/21 07:28:16;;;;;;;9.97;7.27;;;;;;;;;;4996354;28;20203;-79
2022/04/21 07:30:42;;;;;;;7.53;6.83;;;;;;;;;;5011467;28;20187;-80
2022/04/21 07:33:10;;;;;;;10.50;7.17;;;;;;;;;;5013776;28;20179;-79
2022/04/21 07:35:38;;;;;;;8.53;7.10;;;;;;;;;;5013377;28;20256;-79
2022/04/21 07:38:05;;;;;;;6.97;6.37;;;;;;;;;;5013126;28;20211;-80
2022/04/21 07:40:32;;;;;;;8.03;6.97;;;;;;;;;;4992395;28;20600;-80
2022/04/21 07:43:03;;;;;;;7.80;6.10;;;;;;;;;;5012888;28;20651;-79
2022/04/21 07:45:30;;;;;;;6.93;6.30;;;;;;;;;;5014238;28;20175;-80
2022/04/21 07:47:59;;;;;;;7.30;6.30;;;;;;;;;;5009264;28;20206;-80
2022/04/21 07:50:26;;;;;;;9.10;7.00;;;;;;;;;;5012541;28;20218;-81
2022/04/21 07:55:37;;;;;;;7.40;6.70;;;;;;;;;;5029574;28;20183;-81
2022/04/21 07:58:03;;;;;;;7.40;6.20;;;;;;;;;;5017543;28;20296;-82
2022/04/21 08:00:31;;;;;;;7.30;6.60;;;;;;;;;;5017201;28;20187;-81
2022/04/21 08:02:59;;;;;;;7.27;6.47;;;;;;;;;;5017050;28;20190;-83
2022/04/21 08:05:25;;;;;;;6.70;6.07;;;;;;;;;;5017244;28;20198;-84
2022/04/21 08:07:52;;;;;;;7.70;6.43;;;;;;;;;;5031546;28;20203;-79
2022/04/21 08:10:18;;;;;;;6.60;5.80;;;;;;;;;;5014588;28;20210;-78
2022/04/21 08:12:46;;;;;;;10.30;6.93;;;;;;;;;;5013526;28;20706;-79
2022/04/21 08:15:16;;;;;;;6.77;6.13;;;;;;;;;;5015091;28;20190;-82
2022/04/21 08:17:42;;;;;;;7.27;6.33;;;;;;;;;;5009812;28;20345;-80
2022/04/21 08:20:10;;;;;;;7.70;6.57;;;;;;;;;;5008966;28;20665;-81
2022/04/21 08:22:36;;;;;;;7.60;5.83;;;;;;;;;;5031676;28;20175;-81
2022/04/21 08:33:18;;;;;;;7.80;6.47;;;;;;;;;;5013768;28;20278;-82
2022/04/21 08:35:45;;;;;;;6.83;6.00;;;;;;;;;;5012176;28;20188;-79
2022/04/21 08:38:12;;;;;;;9.13;6.60;;;;;;;;;;5014648;28;20215;-79
2022/04/21 08:40:38;;;;;;;8.27;6.13;;;;;;;;;;5015463;28;20186;-80
2022/04/21 08:43:08;;;;;;;7.20;6.50;;;;;;;;;;5020458;28;20213;-80
2022/04/21 08:45:34;;;;;;;8.20;6.17;;;;;;;;;;5003855;28;20655;-80
2022/04/21 08:48:01;;;;;;;8.07;6.30;;;;;;;;;;5019836;28;20199;-81
2022/04/21 08:50:28;;;;;;;7.03;6.33;;;;;;;;;;5021258;28;20217;-82
2022/04/21 08:52:54;;;;;;;6.93;6.20;;;;;;;;;;5020877;28;20193;-81
2022/04/21 08:55:21;;;;;;;7.13;6.30;;;;;;;;;;5017537;28;20222;-81
2022/04/21 08:57:47;;;;;;;7.03;5.70;;;;;;;;;;5016161;28;20577;-81
2022/04/21 09:00:13;;;;;;;8.00;5.63;;;;;;;;;;5016225;28;20247;-82
2022/04/21 09:02:41;;;;;;;6.07;5.40;;;;;;;;;;5015275;28;20222;-83
2022/04/21 09:05:09;;;;;;;8.50;5.70;;;;;;;;;;5014368;28;20179;-81
2022/04/21 09:07:45;;;;;;;8.13;6.23;;;;;;;;;;5017675;28;20195;-81
2022/04/21 09:10:12;;;;;;;6.00;5.40;;;;;;;;;;5016074;28;20179;-82
2022/04/21 09:12:42;;;;;;;6.70;5.93;;;;;;;;;;5015024;28;20652;-80
2022/04/21 09:15:18;;;;;;;6.90;5.73;;;;;;;;;;5012277;28;20237;-80
2022/04/21 09:18:07;;;;;;;7.07;6.20;;;;;;;;;;5012446;28;20203;-80
2022/04/21 09:20:35;;;;;;;7.33;6.00;;;;;;;;;;5014760;28;20179;-80
2022/04/21 09:23:03;;;;;;;7.37;5.70;;;;;;;;;;4995379;28;20568;-79
2022/04/21 09:25:44;;;;;;;7.30;5.77;;;;;;;;;;5007686;28;20189;-80
2022/04/21 09:28:24;;;;;;;8.33;5.60;;;;;;;;;;5014970;28;20204;-80
2022/04/21 09:30:51;;;;;;;6.53;5.27;;;;;;;;;;4993691;28;20199;-80
2022/04/21 09:33:31;;;;;;;6.23;5.30;;;;;;;;;;5011238;28;20183;-80
2022/04/21 09:36:18;;;;;;;6.77;5.50;;;;;;;;;;4996098;28;20295;-79
2022/04/21 09:38:57;;;;;;;5.87;5.30;;;;;;;;;;5028363;28;20195;-80
2022/04/21 09:41:28;;;;;;;6.23;5.43;;;;;;;;;;5012927;28;20270;-84
2022/04/21 09:46:07;;;;;;;6.43;5.77;;;;;;;;;;5016952;28;20215;-80
2022/04/21 09:46:51;;;;;;;5.90;5.40;;;;;;;;;;5013332;28;20244;-81
2022/04/21 09:49:35;;;;;;;9.43;5.40;;;;;;;;;;4998183;28;20250;-82
2022/04/21 09:52:02;;;;;;;6.50;4.83;;;;;;;;;;5033471;28;20193;-81
2022/04/21 09:54:31;;;;;;;5.57;4.37;;;;;;;;;;5004317;28;20193;-81
2022/04/21 09:56:58;;;;;;;5.50;5.00;;;;;;;;;;5004250;28;20544;-81
2022/04/21 09:59:25;;;;;;;6.40;5.57;;;;;;;;;;5021316;28;20221;-82
2022/04/21 10:01:51;;;;;;;5.50;4.80;;;;;;;;;;5020747;28;20196;-82
2022/04/21 10:04:20;;;;;;;5.23;4.83;;;;;;;;;;5020758;28;20593;-82
2022/04/21 10:06:47;;;;;;;6.10;4.50;;;;;;;;;;5020544;28;20203;-81
2022/04/21 10:09:16;;;;;;;4.60;4.20;;;;;;;;;;5024941;28;20187;-82
2022/04/21 10:11:43;;;;;;;5.77;4.50;;;;;;;;;;5027550;28;20202;-82
2022/04/21 10:14:15;;;;;;;7.57;4.53;;;;;;;;;;5027044;28;20195;-82
2022/04/21 10:16:42;;;;;;;4.73;4.30;;;;;;;;;;5021679;28;20213;-82
2022/04/21 10:19:09;;;;;;;7.33;4.77;;;;;;;;;;5012199;28;20210;-82
2022/04/21 10:21:48;;;;;;;4.83;4.33;;;;;;;;;;5020924;28;20307;-81
2022/04/21 10:24:21;;;;;;;6.20;4.43;;;;;;;;;;5018863;28;20189;-83
2022/04/21 10:26:48;;;;;;;5.90;4.57;;;;;;;;;;5026775;28;20207;-80
2022/04/21 10:29:15;;;;;;;4.40;4.00;;;;;;;;;;5010695;28;20187;-78
2022/04/21 10:31:59;;;;;;;5.17;4.47;;;;;;;;;;5011937;28;20187;-81
2022/04/21 10:34:40;;;;;;;5.77;5.27;;;;;;;;;;5033191;28;20792;-83
2022/04/21 10:37:14;;;;;;;6.93;5.00;;;;;;;;;;5010311;28;20207;-78
2022/04/21 10:40:01;;;;;;;6.27;4.40;;;;;;;;;;5008287;28;20265;-77
2022/04/21 10:42:30;;;;;;;7.20;5.30;;;;;;;;;;5023427;28;20643;-79
2022/04/21 10:44:56;;;;;;;5.40;4.37;;;;;;;;;;5012404;28;20237;-79
2022/04/21 10:47:35;;;;;;;4.87;4.10;;;;;;;;;;5011039;28;20234;-78
2022/04/21 10:50:04;;;;;;;5.70;4.23;;;;;;;;;;5009158;28;20691;-79
2022/04/21 10:57:51;;;;;;;4.97;3.87;;;;;;;;;;5008412;28;20206;-76
2022/04/21 11:00:32;;;;;;;6.40;4.40;;;;;;;;;;5005326;28;20230;-76
2022/04/21 11:03:09;;;;;;;4.43;3.87;;;;;;;;;;5010678;28;20266;-79
2022/04/21 11:05:36;;;;;;;4.27;3.83;;;;;;;;;;4988026;28;20275;-77
2022/04/21 11:08:11;;;;;;;4.90;4.33;;;;;;;;;;5010234;28;20671;-78
2022/04/21 11:10:37;;;;;;;5.07;3.90;;;;;;;;;;5003868;28;20190;-79
2022/04/21 11:13:04;;;;;;;5.53;3.93;;;;;;;;;;5010131;28;20205;-78
2022/04/21 11:15:40;;;;;;;4.00;3.60;;;;;;;;;;5008573;28;20648;-78
2022/04/21 11:18:10;;;;;;;4.20;3.30;;;;;;;;;;5010252;28;20256;-80
2022/04/21 11:20:41;;;;;;;5.03;3.60;;;;;;;;;;5007505;28;20704;-79
2022/04/21 11:23:08;;;;;;;3.50;3.20;;;;;;;;;;5009954;28;20262;-79
2022/04/21 11:25:35;;;;;;;3.30;3.00;;;;;;;;;;5013387;28;20191;-79
2022/04/21 11:28:02;;;;;;;3.43;2.93;;;;;;;;;;5007440;28;20203;-79
2022/04/21 11:30:32;;;;;;;4.70;3.77;;;;;;;;;;5009126;28;20175;-79
2022/04/21 11:33:00;;;;;;;4.77;3.33;;;;;;;;;;5009571;28;20660;-80
2022/04/21 11:35:26;;;;;;;4.33;3.37;;;;;;;;;;5010103;28;20191;-79
2022/04/21 11:38:00;;;;;;;4.43;3.33;;;;;;;;;;5010694;28;20195;-79
2022/04/21 11:40:29;;;;;;;3.50;2.90;;;;;;;;;;5022316;28;20206;-85
2022/04/21 11:43:03;;;;;;;4.47;3.20;;;;;;;;;;5009126;28;20187;-78
2022/04/21 11:45:35;;;;;;;5.23;3.70;;;;;;;;;;5010067;28;20183;-78
2022/04/21 11:48:02;;;;;;;4.47;3.80;;;;;;;;;;5010466;28;20210;-77
2022/04/21 11:50:29;;;;;;;5.43;3.60;;;;;;;;;;5009847;28;20179;-77
2022/04/21 11:52:57;;;;;;;3.93;3.53;;;;;;;;;;5009270;28;20254;-78
2022/04/21 11:55:28;;;;;;;4.20;3.30;;;;;;;;;;5006237;28;20523;-78
2022/04/21 11:57:55;;;;;;;4.00;3.27;;;;;;;;;;5008438;28;20203;-78
2022/04/21 12:08:44;;;;;;;3.60;3.10;;;;;;;;;;5014141;28;20207;-78
2022/04/21 12:11:10;;;;;;;4.03;3.50;;;;;;;;;;5011009;28;20667;-78
2022/04/21 12:13:37;;;;;;;4.20;3.50;;;;;;;;;;5013950;28;20663;-78
2022/04/21 12:16:03;;;;;;;3.43;3.13;;;;;;;;;;5013797;28;20191;-78
2022/04/21 12:18:44;;;;;;;3.53;3.23;;;;;;;;;;5013631;28;20215;-78
2022/04/21 12:21:11;;;;;;;5.27;3.90;;;;;;;;;;5014153;28;20567;-78
2022/04/21 12:23:37;;;;;;;3.43;3.10;;;;;;;;;;5013715;28;20194;-78
2022/04/21 12:26:06;;;;;;;4.53;3.30;;;;;;;;;;5007510;28;20191;-78
2022/04/21 12:28:47;;;;;;;3.50;3.20;;;;;;;;;;5007287;28;20603;-79
2022/04/21 12:31:18;;;;;;;4.27;3.03;;;;;;;;;;5010774;28;20237;-79
2022/04/21 12:33:45;;;;;;;5.30;3.27;;;;;;;;;;5027767;28;20274;-79
2022/04/21 12:36:11;;;;;;;3.57;3.00;;;;;;;;;;5013849;28;20176;-79
2022/04/21 12:39:01;;;;;;;4.37;3.37;;;;;;;;;;5010339;28;20215;-79
2022/04/21 12:41:28;;;;;;;4.20;3.07;;;;;;;;;;5012494;28;20193;-79
2022/04/21 12:43:55;;;;;;;3.17;2.67;;;;;;;;;;5009461;28;20660;-79
2022/04/21 12:46:21;;;;;;;6.23;3.53;;;;;;;;;;5012127;28;20183;-78
2022/04/21 12:48:51;;;;;;;3.23;2.93;;;;;;;;;;5012660;28;20659;-78
2022/04/21 12:51:22;;;;;;;4.83;2.93;;;;;;;;;;5012086;28;20261;-80
2022/04/21 12:53:58;;;;;;;6.53;3.10;;;;;;;;;;5009775;28;20269;-78
2022/04/21 12:56:35;;;;;;;3.60;3.00;;;;;;;;;;5010807;28;20643;-78
2022/04/21 12:59:02;;;;;;;4.23;2.70;;;;;;;;;;5010773;28;20214;-79
2022/04/21 13:01:28;;;;;;;2.50;2.30;;;;;;;;;;5012252;28;20241;-79
2022/04/21 13:03:54;;;;;;;3.60;2.70;;;;;;;;;;5012829;28;20597;-79
2022/04/21 13:06:28;;;;;;;4.37;2.67;;;;;;;;;;5012494;28;20584;-79
2022/04/21 13:08:54;;;;;;;3.80;2.80;;;;;;;;;;5027800;28;20190;-79
2022/04/21 13:11:21;;;;;;;5.90;3.10;;;;;;;;;;5012440;28;20659;-78
2022/04/21 13:13:47;;;;;;;4.00;3.33;;;;;;;;;;5012390;28;20198;-78
2022/04/21 13:16:13;;;;;;;5.10;3.90;;;;;;;;;;5013499;28;20187;-78
2022/04/21 13:18:39;;;;;;;5.27;2.80;;;;;;;;;;5003971;28;20211;-78
2022/04/21 13:23:51;;;;;;;3.67;3.10;;;;;;;;;;5010511;28;20570;-79
2022/04/21 13:26:17;;;;;;;3.53;3.07;;;;;;;;;;5009167;28;20269;-78
2022/04/21 13:28:43;;;;;;;3.70;2.77;;;;;;;;;;5012969;28;20187;-77
2022/04/21 13:33:54;;;;;;;2.37;2.13;;;;;;;;;;5003029;28;20187;-77
2022/04/21 13:36:20;;;;;;;2.27;2.07;;;;;;;;;;5008634;28;20190;-78
2022/04/21 13:38:47;;;;;;;2.90;2.60;;;;;;;;;;5012722;28;20312;-78
2022/04/21 13:41:13;;;;;;;4.57;2.47;;;;;;;;;;5012731;28;20669;-78
2022/04/21 13:43:39;;;;;;;5.67;5.03;;;;;;;;;;5013412;28;20176;-78
2022/04/21 13:46:05;;;;;;;4.13;3.70;;;;;;;;;;5012274;28;20253;-78
2022/04/21 13:48:31;;;;;;;3.57;3.27;;;;;;;;;;5009314;28;20644;-78
2022/04/21 13:50:58;;;;;;;5.20;2.57;;;;;;;;;;5011333;28;20578;-78
2022/04/21 13:53:24;;;;;;;5.07;2.47;;;;;;;;;;5012962;28;20194;-78
2022/04/21 13:55:50;;;;;;;3.30;2.20;;;;;;;;;;5012598;28;20221;-78
2022/04/21 13:58:16;;;;;;;3.53;2.50;;;;;;;;;;5000760;28;20216;-78
2022/04/21 14:00:45;;;;;;;2.53;2.00;;;;;;;;;;5007758;28;20654;-78
2022/04/21 14:03:12;;;;;;;2.80;2.00;;;;;;;;;;5019678;28;20241;-78
2022/04/21 14:05:39;;;;;;;2.10;1.90;;;;;;;;;;5012483;28;20654;-77
2022/04/21 14:08:06;;;;;;;4.70;2.40;;;;;;;;;;5011361;28;20193;-78
2022/04/21 14:10:33;;;;;;;2.50;2.30;;;;;;;;;;5011995;28;20204;-77
2022/04/21 14:12:59;;;;;;;3.00;2.57;;;;;;;;;;5001850;28;20215;-78
2022/04/21 14:15:25;;;;;;;3.37;2.37;;;;;;;;;;4992758;28;20187;-78
2022/04/21 14:17:52;;;;;;;2.67;2.40;;;;;;;;;;5001569;28;20211;-77
2022/04/21 14:20:18;;;;;;;3.10;2.40;;;;;;;;;;5011740;28;20239;-77
2022/04/21 14:22:44;;;;;;;2.80;2.50;;;;;;;;;;5011722;28;20177;-77
2022/04/21 14:25:11;;;;;;;2.77;2.40;;;;;;;;;;5011189;28;20181;-77
2022/04/21 14:27:37;;;;;;;2.83;2.53;;;;;;;;;;5005396;28;20223;-77
2022/04/21 14:30:06;;;;;;;3.23;2.70;;;;;;;;;;5010121;28;20224;-77
2022/04/21 14:32:32;;;;;;;5.60;2.83;;;;;;;;;;5003521;28;20187;-77
2022/04/21 14:34:58;;;;;;;3.07;2.50;;;;;;;;;;4993768;28;20334;-77
2022/04/21 14:45:43;;;;;;;4.50;2.87;;;;;;;;;;5012470;28;20607;-76
2022/04/21 14:48:30;;;;;;;3.97;3.50;;;;;;;;;;5001757;28;20215;-76
2022/04/21 14:50:56;;;;;;;4.63;2.73;;;;;;;;;;5009637;28;20195;-76
2022/04/21 14:53:25;;;;;;;2.70;2.43;;;;;;;;;;5008680;28;20308;-76
2022/04/21 14:55:54;;;;;;;4.93;2.60;;;;;;;;;;5010691;28;20183;-77
2022/04/21 14:58:21;;;;;;;6.03;4.73;;;;;;;;;;5010133;28;20211;-76
2022/04/21 15:00:47;;;;;;;3.13;2.70;;;;;;;;;;5009321;28;20198;-76
2022/04/21 15:03:13;;;;;;;4.53;2.47;;;;;;;;;;5009659;28;20183;-76
2022/04/21 15:05:40;;;;;;;2.53;2.33;;;;;;;;;;5010910;28;20258;-75
2022/04/21 15:08:08;;;;;;;4.77;2.60;;;;;;;;;;5011215;28;20196;-76
2022/04/21 15:10:37;;;;;;;3.60;2.30;;;;;;;;;;5008730;28;20534;-77
2022/04/21 15:13:07;;;;;;;3.13;2.10;;;;;;;;;;5010944;28;20310;-76
2022/04/21 15:15:37;;;;;;;4.43;2.60;;;;;;;;;;5009822;28;20199;-76
2022/04/21 15:18:04;;;;;;;3.70;2.60;;;;;;;;;;4998867;28;20213;-76
2022/04/21 15:20:31;;;;;;;3.73;2.47;;;;;;;;;;5010520;28;20194;-76
2022/04/21 15:22:58;;;;;;;3.47;2.77;;;;;;;;;;5003703;28;20745;-76
2022/04/21 15:25:25;;;;;;;3.90;2.57;;;;;;;;;;5008790;28;20687;-76
2022/04/21 15:27:51;;;;;;;2.50;2.30;;;;;;;;;;5008269;28;20203;-76
2022/04/21 15:30:18;;;;;;;3.77;2.57;;;;;;;;;;5006470;28;20183;-76
2022/04/21 15:32:44;;;;;;;2.50;2.23;;;;;;;;;;5010822;28;20270;-76
2022/04/21 15:35:10;;;;;;;5.23;2.70;;;;;;;;;;5010946;28;20187;-75
2022/04/21 15:37:40;;;;;;;3.07;2.30;;;;;;;;;;5011849;28;20880;-74
2022/04/21 15:40:07;;;;;;;2.77;2.10;;;;;;;;;;5015115;28;20191;-76
2022/04/21 15:42:38;;;;;;;2.30;2.10;;;;;;;;;;5014208;28;20752;-76
2022/04/21 15:45:06;;;;;;;4.07;2.20;;;;;;;;;;5014846;28;20175;-76
2022/04/21 15:47:32;;;;;;;3.67;2.07;;;;;;;;;;5029959;28;20605;-76
2022/04/21 15:49:58;;;;;;;3.17;2.00;;;;;;;;;;5024252;28;20186;-76
2022/04/21 15:52:24;;;;;;;3.17;2.30;;;;;;;;;;5020407;28;20237;-76
2022/04/21 16:00:20;;;;;;;2.83;2.50;;;;;;;;;;5014511;28;20210;-76
2022/04/21 16:02:47;;;;;;;4.80;3.13;;;;;;;;;;5014812;28;20176;-76